Time;durP1;ratioP1;P1;durP2;ratioP2;P2;SDS_P1;SDS_P2;PMS_P1;PMS_P2;Temp;Humidity;BMP_temperature;BMP_pressure;BME280_temperature;BME280_humidity;BME280_pressure;Samples;Min_cycle;Max_cycle;Signal;HPM_P1;HPM_P2
2023/05/31 00:00:21;;;;;;;8.02;3.85;;;14.10;1.00;;;;;;4805086;29;20110;-59
2023/05/31 00:02:46;;;;;;;6.70;3.58;;;14.00;1.00;;;;;;4804420;29;20042;-58
2023/05/31 00:05:12;;;;;;;5.70;3.67;;;14.00;1.00;;;;;;4804742;29;20091;-57
2023/05/31 00:07:38;;;;;;;10.95;3.78;;;14.00;1.00;;;;;;4804856;29;20023;-59
2023/05/31 00:10:04;;;;;;;9.57;4.30;;;14.00;1.00;;;;;;4807403;29;20043;-58
2023/05/31 00:12:29;;;;;;;9.27;3.95;;;14.00;99.90;;;;;;4805328;29;20466;-58
2023/05/31 00:14:55;;;;;;;8.73;3.75;;;14.00;99.90;;;;;;4804389;29;20110;-60
2023/05/31 00:17:20;;;;;;;4.93;3.30;;;14.00;99.90;;;;;;4804317;29;20026;-57
2023/05/31 00:19:46;;;;;;;7.72;3.92;;;14.00;99.90;;;;;;4804783;29;20107;-58
2023/05/31 00:22:15;;;;;;;12.18;5.22;;;13.90;99.90;;;;;;4804183;29;20027;-59
2023/05/31 00:24:40;;;;;;;8.77;3.67;;;13.90;99.90;;;;;;4818472;29;20410;-59
2023/05/31 00:27:06;;;;;;;8.20;4.38;;;13.90;99.90;;;;;;4804291;29;20031;-60
2023/05/31 00:29:32;;;;;;;4.53;3.63;;;13.80;1.00;;;;;;4807032;29;20170;-59
2023/05/31 00:31:58;;;;;;;7.93;3.35;;;13.70;1.00;;;;;;4815756;29;20037;-59
2023/05/31 00:34:23;;;;;;;8.70;3.38;;;13.70;1.00;;;;;;4804009;29;20042;-59
2023/05/31 00:36:49;;;;;;;6.60;3.70;;;13.60;1.00;;;;;;4804417;29;20037;-57
2023/05/31 00:39:15;;;;;;;10.63;3.47;;;13.70;1.00;;;;;;4803966;29;20035;-59
2023/05/31 00:41:40;;;;;;;8.57;4.10;;;13.60;1.00;;;;;;4804120;29;20455;-56
2023/05/31 00:44:06;;;;;;;8.98;3.72;;;13.50;1.00;;;;;;4804538;29;20042;-60
2023/05/31 00:46:34;;;;;;;13.60;4.22;;;13.50;1.00;;;;;;4804519;29;20039;-59
2023/05/31 00:49:00;;;;;;;4.65;3.40;;;13.40;1.00;;;;;;4818421;29;20377;-59
2023/05/31 00:51:27;;;;;;;11.32;4.18;;;13.40;9.00;;;;;;4804431;29;20039;-60
2023/05/31 00:53:53;;;;;;;6.47;3.80;;;13.40;1.00;;;;;;4804347;29;20046;-59
2023/05/31 00:56:21;;;;;;;8.80;4.25;;;13.40;1.00;;;;;;4804480;29;20035;-57
2023/05/31 00:58:48;;;;;;;5.38;3.53;;;13.30;1.70;;;;;;4804283;29;20129;-60
2023/05/31 01:01:14;;;;;;;8.07;3.97;;;13.30;7.00;;;;;;4804345;29;20114;-58
2023/05/31 01:03:41;;;;;;;7.68;4.40;;;13.30;39.00;;;;;;4804002;29;20030;-58
2023/05/31 01:06:08;;;;;;;7.45;3.78;;;13.30;61.30;;;;;;4804177;29;20379;-60
2023/05/31 01:08:34;;;;;;;10.10;3.65;;;13.30;96.30;;;;;;4803565;29;20061;-58
2023/05/31 01:11:29;;;;;;;6.25;3.65;;;13.30;60.20;;;;;;4803963;29;20042;-60
2023/05/31 01:14:17;;;;;;;7.72;3.88;;;13.20;99.90;;;;;;4804154;29;20483;-57
2023/05/31 01:16:57;;;;;;;7.55;3.78;;;13.20;99.90;;;;;;4804071;29;20037;-58
2023/05/31 01:19:49;;;;;;;5.20;3.70;;;13.20;99.90;;;;;;4804099;29;20038;-56
2023/05/31 01:22:35;;;;;;;6.85;3.50;;;13.10;1.00;;;;;;4806388;29;20542;-58
2023/05/31 01:25:22;;;;;;;13.38;3.85;;;13.00;1.00;;;;;;4807274;29;20051;-59
2023/05/31 01:27:50;;;;;;;8.80;3.22;;;13.00;1.00;;;;;;4807252;29;20039;-59
2023/05/31 01:30:17;;;;;;;13.65;5.07;;;13.00;1.00;;;;;;4807569;29;20027;-58
2023/05/31 01:32:44;;;;;;;8.38;3.65;;;13.00;99.90;;;;;;4821206;29;20042;-59
2023/05/31 01:35:11;;;;;;;9.32;4.13;;;12.90;99.90;;;;;;4807296;29;20112;-60
2023/05/31 01:37:36;;;;;;;8.20;3.80;;;12.90;1.00;;;;;;4807170;29;20174;-59
2023/05/31 01:40:03;;;;;;;8.90;3.83;;;12.90;10.00;;;;;;4807333;29;20117;-58
2023/05/31 01:42:30;;;;;;;7.53;4.28;;;12.90;99.90;;;;;;4807501;29;20064;-57
2023/05/31 01:44:56;;;;;;;12.20;5.10;;;12.80;99.90;;;;;;4807560;29;20386;-60
2023/05/31 01:47:23;;;;;;;16.60;4.18;;;12.80;1.00;;;;;;4807211;29;20031;-56
2023/05/31 01:49:49;;;;;;;6.10;3.47;;;12.80;99.90;;;;;;4807100;29;20039;-57
2023/05/31 01:52:17;;;;;;;9.55;3.92;;;12.80;1.00;;;;;;4806872;29;20034;-58
2023/05/31 01:54:42;;;;;;;12.02;5.43;;;12.80;1.00;;;;;;4806983;29;20057;-59
2023/05/31 01:57:10;;;;;;;7.78;3.75;;;12.80;99.90;;;;;;4812028;29;20030;-58
2023/05/31 01:59:37;;;;;;;8.05;4.07;;;12.70;99.90;;;;;;4807012;29;20039;-58
2023/05/31 02:02:04;;;;;;;8.23;4.15;;;12.70;1.00;;;;;;4806581;29;20042;-60
2023/05/31 02:04:30;;;;;;;9.63;3.95;;;12.70;99.90;;;;;;4806963;29;20027;-58
2023/05/31 02:06:57;;;;;;;10.02;4.70;;;12.60;99.90;;;;;;4806866;29;20084;-59
2023/05/31 02:09:23;;;;;;;8.75;4.43;;;12.60;99.90;;;;;;4806940;29;20468;-59
2023/05/31 02:11:49;;;;;;;6.50;4.40;;;12.60;1.00;;;;;;4806301;29;20387;-58
2023/05/31 02:14:15;;;;;;;10.63;4.35;;;12.60;1.00;;;;;;4820974;29;20034;-57
2023/05/31 02:16:41;;;;;;;11.07;4.00;;;12.60;1.00;;;;;;4806701;29;20023;-59
2023/05/31 02:19:06;;;;;;;13.30;4.20;;;12.60;1.00;;;;;;4806477;29;20673;-59
2023/05/31 02:21:35;;;;;;;8.32;4.05;;;12.60;1.00;;;;;;4806742;29;20030;-57
2023/05/31 02:24:01;;;;;;;8.02;4.35;;;12.50;99.90;;;;;;4806305;29;20051;-59
2023/05/31 02:26:26;;;;;;;7.97;4.40;;;12.50;99.90;;;;;;4806638;29;20046;-59
2023/05/31 02:28:52;;;;;;;6.88;4.22;;;12.50;1.00;;;;;;4806297;29;20035;-58
2023/05/31 02:31:18;;;;;;;10.80;4.45;;;12.50;99.90;;;;;;4806454;29;20035;-58
2023/05/31 02:33:44;;;;;;;11.80;4.65;;;12.50;1.00;;;;;;4806278;29;20043;-56
2023/05/31 02:36:11;;;;;;;13.23;4.90;;;12.50;48.40;;;;;;4806102;29;20040;-57
2023/05/31 02:38:37;;;;;;;17.27;5.05;;;12.50;1.00;;;;;;4806268;29;20038;-60
2023/05/31 02:41:02;;;;;;;7.88;4.43;;;12.40;99.90;;;;;;4806536;29;20049;-57
2023/05/31 02:43:30;;;;;;;10.25;3.92;;;12.40;99.90;;;;;;4806056;29;20466;-59
2023/05/31 02:45:56;;;;;;;11.93;4.85;;;12.40;99.90;;;;;;4806153;29;20034;-55
2023/05/31 02:48:21;;;;;;;11.30;5.25;;;12.50;99.90;;;;;;4806185;29;20501;-57
2023/05/31 02:50:47;;;;;;;16.08;4.50;;;12.50;1.00;;;;;;4806237;29;20035;-60
2023/05/31 02:53:13;;;;;;;11.02;4.22;;;12.40;99.90;;;;;;4806160;29;20038;-57
2023/05/31 02:55:39;;;;;;;7.97;3.83;;;12.40;99.90;;;;;;4806432;29;20117;-57
2023/05/31 02:58:06;;;;;;;12.35;4.43;;;12.30;99.90;;;;;;4806096;29;20034;-59
2023/05/31 03:00:32;;;;;;;8.35;3.83;;;12.20;99.90;;;;;;4806247;29;20039;-57
2023/05/31 03:02:58;;;;;;;10.60;4.22;;;12.10;1.00;;;;;;4806067;29;20026;-60
2023/05/31 03:05:23;;;;;;;8.48;4.55;;;12.00;99.90;;;;;;4805871;29;20041;-59
2023/05/31 03:07:49;;;;;;;16.15;5.18;;;11.90;1.00;;;;;;4805936;29;20043;-60
2023/05/31 03:10:15;;;;;;;8.70;4.53;;;11.90;99.90;;;;;;4805910;29;20043;-57
2023/05/31 03:12:40;;;;;;;24.58;5.13;;;11.80;99.90;;;;;;4805874;29;20562;-58
2023/05/31 03:15:07;;;;;;;11.15;4.00;;;11.70;91.70;;;;;;4805548;29;20501;-58
2023/05/31 03:17:32;;;;;;;6.47;4.43;;;11.60;99.90;;;;;;4805429;29;20027;-58
2023/05/31 03:19:58;;;;;;;9.23;4.25;;;11.60;1.00;;;;;;4805133;29;20050;-59
2023/05/31 03:22:25;;;;;;;7.82;4.78;;;11.50;1.00;;;;;;4805407;29;20031;-55
2023/05/31 03:24:50;;;;;;;6.47;4.22;;;11.40;71.30;;;;;;4805230;29;20045;-57
2023/05/31 03:27:16;;;;;;;9.15;4.88;;;11.30;99.90;;;;;;4805416;29;20038;-59
2023/05/31 03:29:43;;;;;;;10.55;4.28;;;11.10;99.90;;;;;;4805597;29;20031;-59
2023/05/31 03:32:09;;;;;;;6.60;4.07;;;10.90;1.00;;;;;;4805277;29;20042;-59
2023/05/31 03:34:34;;;;;;;9.20;4.60;;;10.80;1.00;;;;;;4805309;29;20034;-57
2023/05/31 03:37:02;;;;;;;10.80;4.45;;;10.80;1.00;;;;;;4805209;29;20043;-58
2023/05/31 03:39:27;;;;;;;11.88;4.63;;;10.90;1.00;;;;;;4805328;29;20160;-58
2023/05/31 03:41:53;;;;;;;8.50;4.72;;;10.90;1.00;;;;;;4805152;29;20121;-59
2023/05/31 03:44:19;;;;;;;14.48;5.47;;;10.90;1.00;;;;;;4804377;29;20378;-57
2023/05/31 03:46:45;;;;;;;22.13;5.30;;;10.90;1.00;;;;;;4804994;29;20547;-59
2023/05/31 03:49:11;;;;;;;10.43;4.45;;;10.90;1.00;;;;;;4805085;29;20063;-56
2023/05/31 03:51:36;;;;;;;19.30;5.35;;;10.90;1.00;;;;;;4805162;29;20125;-55
2023/05/31 03:54:02;;;;;;;9.43;5.00;;;10.90;1.00;;;;;;4804961;29;20121;-58
2023/05/31 03:56:28;;;;;;;8.27;4.32;;;11.00;1.00;;;;;;4805024;29;20096;-59
2023/05/31 03:58:53;;;;;;;13.43;4.40;;;11.10;99.90;;;;;;4804951;29;20062;-58
2023/05/31 04:01:19;;;;;;;8.18;4.55;;;11.20;99.90;;;;;;4819069;29;20126;-54
2023/05/31 04:03:44;;;;;;;6.10;3.90;;;11.40;99.90;;;;;;4804404;29;20023;-56
2023/05/31 04:06:10;;;;;;;10.07;3.78;;;11.70;99.90;;;;;;4805138;29;20034;-56
2023/05/31 04:08:36;;;;;;;13.18;5.28;;;11.90;1.00;;;;;;4805197;29;20031;-59
2023/05/31 04:11:02;;;;;;;19.67;4.15;;;12.00;99.90;;;;;;4805079;29;20099;-58
2023/05/31 04:13:28;;;;;;;11.27;4.40;;;12.10;20.10;;;;;;4804901;29;20045;-58
2023/05/31 04:15:53;;;;;;;7.80;5.40;;;12.20;99.90;;;;;;4804888;29;20031;-57
2023/05/31 04:18:19;;;;;;;10.25;4.53;;;12.30;99.90;;;;;;4804981;29;20425;-57
2023/05/31 04:20:45;;;;;;;9.05;3.67;;;12.50;99.90;;;;;;4804934;29;20031;-58
2023/05/31 04:23:10;;;;;;;7.07;4.32;;;12.60;99.90;;;;;;4804688;29;20382;-57
2023/05/31 04:25:36;;;;;;;11.60;4.28;;;12.70;99.90;;;;;;4804764;29;20046;-57
2023/05/31 04:28:05;;;;;;;9.02;4.38;;;12.70;42.30;;;;;;4804780;29;20023;-59
2023/05/31 04:30:31;;;;;;;20.45;4.90;;;12.80;36.90;;;;;;4804828;29;20039;-58
2023/05/31 04:32:57;;;;;;;6.80;3.55;;;12.80;83.90;;;;;;4804535;29;20152;-57
2023/05/31 04:35:23;;;;;;;10.88;4.10;;;12.90;1.00;;;;;;4804837;29;20137;-56
2023/05/31 04:37:52;;;;;;;6.05;3.60;;;13.00;1.00;;;;;;4804608;29;20117;-56
2023/05/31 04:40:20;;;;;;;16.20;4.85;;;13.00;99.90;;;;;;4804672;29;20086;-58
2023/05/31 04:42:45;;;;;;;10.95;3.95;;;13.10;99.90;;;;;;4804705;29;20035;-58
2023/05/31 04:45:11;;;;;;;7.70;4.22;;;13.10;99.90;;;;;;4804490;29;20030;-58
2023/05/31 04:47:37;;;;;;;7.97;3.60;;;13.20;99.90;;;;;;4804494;29;20487;-55
2023/05/31 04:50:03;;;;;;;12.45;3.60;;;13.20;31.90;;;;;;4804627;29;20044;-56
2023/05/31 04:52:30;;;;;;;8.15;3.75;;;13.30;1.00;;;;;;4804511;29;20063;-56
2023/05/31 04:54:57;;;;;;;9.18;3.55;;;13.40;99.90;;;;;;4804568;29;20091;-57
2023/05/31 04:57:23;;;;;;;7.50;3.47;;;13.30;99.90;;;;;;4807364;29;20113;-57
2023/05/31 04:59:49;;;;;;;15.15;4.43;;;13.40;46.50;;;;;;4808273;29;20031;-57
2023/05/31 05:02:17;;;;;;;11.15;3.85;;;13.40;1.00;;;;;;4808324;29;20099;-57
2023/05/31 05:04:42;;;;;;;14.43;4.55;;;13.50;1.00;;;;;;4808083;29;20027;-56
2023/05/31 05:07:08;;;;;;;12.05;4.30;;;13.50;1.00;;;;;;4807213;29;20046;-56
2023/05/31 05:09:34;;;;;;;10.20;4.55;;;13.60;1.00;;;;;;4807919;29;20042;-57
2023/05/31 05:12:00;;;;;;;7.43;3.65;;;13.60;1.00;;;;;;4808085;29;20046;-54
2023/05/31 05:14:25;;;;;;;8.85;3.78;;;13.70;99.90;;;;;;4807919;29;20037;-58
2023/05/31 05:16:51;;;;;;;31.45;5.50;;;13.80;99.90;;;;;;4808012;29;20030;-56
2023/05/31 05:19:17;;;;;;;7.30;3.83;;;13.80;99.90;;;;;;4804076;29;20479;-58
2023/05/31 05:21:42;;;;;;;12.63;4.78;;;13.80;1.00;;;;;;4805159;29;20440;-56
2023/05/31 05:24:08;;;;;;;6.03;3.90;;;13.80;99.90;;;;;;4807676;29;20436;-58
2023/05/31 05:26:34;;;;;;;17.55;3.97;;;13.80;99.90;;;;;;4807999;29;20039;-58
2023/05/31 05:28:59;;;;;;;9.85;3.80;;;13.90;99.90;;;;;;4807299;29;20083;-57
2023/05/31 05:31:25;;;;;;;9.85;4.28;;;13.90;99.90;;;;;;4807723;29;20391;-58
2023/05/31 05:33:51;;;;;;;11.05;4.75;;;14.00;99.90;;;;;;4801657;29;20588;-57
2023/05/31 05:36:17;;;;;;;13.48;4.03;;;14.00;99.90;;;;;;4799744;29;20023;-56
2023/05/31 05:38:42;;;;;;;8.15;4.80;;;14.10;99.90;;;;;;4807658;29;20038;-56
2023/05/31 05:41:12;;;;;;;9.45;4.43;;;14.10;99.90;;;;;;4821239;29;20038;-57
2023/05/31 05:43:38;;;;;;;7.53;4.75;;;14.20;99.90;;;;;;4807448;29;20512;-57
2023/05/31 05:46:04;;;;;;;9.80;3.83;;;14.40;99.90;;;;;;4807432;29;20025;-58
2023/05/31 05:48:29;;;;;;;12.48;4.70;;;14.40;93.60;;;;;;4807507;29;20677;-57
2023/05/31 05:50:55;;;;;;;8.98;4.35;;;14.50;89.80;;;;;;4807281;29;20083;-58
2023/05/31 05:53:21;;;;;;;10.27;4.28;;;14.50;91.20;;;;;;4807117;29;20117;-57
2023/05/31 05:55:51;;;;;;;10.68;3.78;;;14.60;90.60;;;;;;4807459;29;20035;-57
2023/05/31 05:58:18;;;;;;;12.05;4.85;;;14.70;1.00;;;;;;4806980;29;20023;-57
2023/05/31 06:00:45;;;;;;;12.30;4.97;;;14.60;1.00;;;;;;4807154;29;20019;-57
2023/05/31 06:03:14;;;;;;;12.48;3.72;;;14.80;1.00;;;;;;4807271;29;20042;-60
2023/05/31 06:05:42;;;;;;;9.98;4.53;;;14.80;1.00;;;;;;4807386;29;20038;-57
2023/05/31 06:08:09;;;;;;;12.65;3.83;;;15.00;1.00;;;;;;4806566;29;20774;-56
2023/05/31 06:10:34;;;;;;;9.07;4.28;;;15.10;1.00;;;;;;4807260;29;20035;-59
2023/05/31 06:13:00;;;;;;;9.90;4.45;;;15.20;1.00;;;;;;4806863;29;20086;-57
2023/05/31 06:15:26;;;;;;;12.85;4.20;;;15.20;1.00;;;;;;4806986;29;20436;-59
2023/05/31 06:17:52;;;;;;;18.83;4.72;;;15.40;1.00;;;;;;4807019;29;20117;-58
2023/05/31 06:20:18;;;;;;;10.82;4.82;;;15.50;1.00;;;;;;4807061;29;20041;-57
2023/05/31 06:22:44;;;;;;;7.40;3.75;;;15.50;99.90;;;;;;4807017;29;20584;-59
2023/05/31 06:25:09;;;;;;;10.85;4.18;;;15.60;1.00;;;;;;4806636;29;20054;-58
2023/05/31 06:27:35;;;;;;;7.82;3.45;;;15.60;99.90;;;;;;4807024;29;20039;-59
2023/05/31 06:30:04;;;;;;;12.40;5.05;;;15.70;99.90;;;;;;4806834;29;20064;-59
2023/05/31 06:32:30;;;;;;;15.13;4.80;;;15.70;99.90;;;;;;4806816;29;20039;-58
2023/05/31 06:34:56;;;;;;;10.80;3.75;;;15.80;99.90;;;;;;4806741;29;20061;-59
2023/05/31 06:37:22;;;;;;;10.60;3.72;;;15.90;99.90;;;;;;4806717;29;20029;-57
2023/05/31 06:39:49;;;;;;;18.50;4.18;;;16.00;99.90;;;;;;4806625;29;20033;-58
2023/05/31 06:42:15;;;;;;;11.57;4.40;;;16.00;99.90;;;;;;4806660;29;20030;-59
2023/05/31 06:44:42;;;;;;;10.00;4.32;;;16.10;99.90;;;;;;4806706;29;20429;-58
2023/05/31 06:47:07;;;;;;;10.10;4.43;;;16.10;99.90;;;;;;4806316;29;20046;-58
2023/05/31 06:49:33;;;;;;;12.52;4.07;;;16.20;99.90;;;;;;4806621;29;20514;-58
2023/05/31 06:51:59;;;;;;;9.30;3.67;;;16.20;99.90;;;;;;4806437;29;20643;-59
2023/05/31 06:54:26;;;;;;;14.52;4.15;;;16.30;99.90;;;;;;4806440;29;20106;-58
2023/05/31 06:56:52;;;;;;;14.40;4.22;;;16.40;93.20;;;;;;4806260;29;20436;-59
2023/05/31 06:59:18;;;;;;;15.63;4.55;;;16.40;81.20;;;;;;4806359;29;20065;-58
2023/05/31 07:01:44;;;;;;;12.65;4.38;;;16.40;89.70;;;;;;4806372;29;20405;-59
2023/05/31 07:04:09;;;;;;;15.13;4.75;;;16.50;81.20;;;;;;4805933;29;20035;-57
2023/05/31 07:06:37;;;;;;;17.02;4.55;;;16.40;26.60;;;;;;4806168;29;20027;-58
2023/05/31 07:09:06;;;;;;;8.27;3.95;;;16.40;51.00;;;;;;4805839;29;20043;-57
2023/05/31 07:11:32;;;;;;;7.35;3.53;;;16.50;80.30;;;;;;4806159;29;20035;-59
2023/05/31 07:14:01;;;;;;;13.40;3.92;;;16.60;99.90;;;;;;4819551;29;20031;-58
2023/05/31 07:16:30;;;;;;;7.30;4.07;;;16.80;99.90;;;;;;4806006;29;20076;-57
2023/05/31 07:18:55;;;;;;;11.32;3.33;;;16.80;43.00;;;;;;4805140;29;20039;-59
2023/05/31 07:21:21;;;;;;;13.48;3.88;;;16.90;32.40;;;;;;4805950;29;20029;-59
2023/05/31 07:23:47;;;;;;;11.10;5.78;;;17.00;21.80;;;;;;4805564;29;20034;-60
2023/05/31 07:26:15;;;;;;;8.27;4.03;;;16.90;6.70;;;;;;4805975;29;20517;-56
2023/05/31 07:28:44;;;;;;;12.20;4.13;;;17.00;1.00;;;;;;4805808;29;20042;-59
2023/05/31 07:31:11;;;;;;;8.63;5.03;;;17.10;1.00;;;;;;4819470;29;20471;-59
2023/05/31 07:33:37;;;;;;;13.10;3.20;;;17.30;1.00;;;;;;4805790;29;20074;-58
2023/05/31 07:36:03;;;;;;;11.98;4.22;;;17.20;1.00;;;;;;4805680;29;20062;-60
2023/05/31 07:38:30;;;;;;;8.57;3.50;;;17.40;1.00;;;;;;4805610;29;20488;-60
2023/05/31 07:40:56;;;;;;;11.02;3.22;;;17.40;1.00;;;;;;4805600;29;20027;-58
2023/05/31 07:43:23;;;;;;;15.60;3.90;;;17.50;1.00;;;;;;4805729;29;20118;-59
2023/05/31 07:45:49;;;;;;;11.68;3.63;;;17.50;1.00;;;;;;4805405;29;20023;-60
2023/05/31 07:48:17;;;;;;;7.53;3.40;;;17.50;1.00;;;;;;4805564;29;20031;-58
2023/05/31 07:50:43;;;;;;;10.82;3.50;;;17.50;1.00;;;;;;4805287;29;20026;-59
2023/05/31 07:53:09;;;;;;;15.90;4.72;;;17.60;1.00;;;;;;4805151;29;20030;-57
2023/05/31 07:55:35;;;;;;;8.32;3.65;;;17.60;1.00;;;;;;4805494;29;20037;-59
2023/05/31 07:58:01;;;;;;;12.32;3.78;;;17.70;1.00;;;;;;4805208;29;20026;-59
2023/05/31 08:00:26;;;;;;;7.40;4.28;;;17.90;1.00;;;;;;4805331;29;20034;-58
2023/05/31 08:02:52;;;;;;;28.85;4.88;;;17.90;1.00;;;;;;4805097;29;20043;-58
2023/05/31 08:05:18;;;;;;;9.77;4.20;;;18.20;1.00;;;;;;4805017;29;20049;-56
2023/05/31 08:07:43;;;;;;;7.40;3.35;;;18.30;1.00;;;;;;4805162;29;20045;-59
2023/05/31 08:10:10;;;;;;;10.38;3.53;;;18.50;1.00;;;;;;4805028;29;20111;-59
2023/05/31 08:12:36;;;;;;;20.23;4.13;;;18.60;1.00;;;;;;4805043;29;20023;-58
2023/05/31 08:15:01;;;;;;;8.60;3.65;;;18.50;1.00;;;;;;4804979;29;20093;-59
2023/05/31 08:17:27;;;;;;;14.20;4.35;;;18.40;1.00;;;;;;4805128;29;20065;-57
2023/05/31 08:19:53;;;;;;;18.23;3.95;;;18.50;1.00;;;;;;4804890;29;20039;-59
2023/05/31 08:22:18;;;;;;;17.63;4.13;;;18.50;1.00;;;;;;4805036;29;20084;-60
2023/05/31 08:24:44;;;;;;;12.68;4.20;;;18.50;1.00;;;;;;4804890;29;20077;-60
2023/05/31 08:27:10;;;;;;;10.15;4.53;;;18.50;1.00;;;;;;4804852;29;20383;-59
2023/05/31 08:29:35;;;;;;;17.48;4.75;;;18.70;1.00;;;;;;4804711;29;20066;-60
2023/05/31 08:32:01;;;;;;;14.93;4.93;;;18.70;1.00;;;;;;4804784;29;20463;-60
2023/05/31 08:34:27;;;;;;;12.75;4.47;;;18.80;1.00;;;;;;4804673;29;20085;-59
2023/05/31 08:36:53;;;;;;;13.57;4.18;;;19.00;1.00;;;;;;4804649;29;20035;-60
2023/05/31 08:39:18;;;;;;;13.63;4.45;;;19.00;1.00;;;;;;4804919;29;20096;-60
2023/05/31 08:42:05;;;;;;;13.68;4.35;;;19.30;1.00;;;;;;4804807;29;20035;-60
2023/05/31 08:44:31;;;;;;;35.05;20.08;;;19.40;1.00;;;;;;4804863;29;20045;-56
2023/05/31 08:47:25;;;;;;;9.40;4.28;;;19.50;1.00;;;;;;4818287;29;20034;-59
2023/05/31 08:49:52;;;;;;;15.90;4.75;;;19.60;1.00;;;;;;4818626;29;20061;-59
2023/05/31 08:52:19;;;;;;;9.25;4.60;;;19.70;1.00;;;;;;4804607;29;20041;-60
2023/05/31 08:54:47;;;;;;;13.40;4.22;;;19.80;1.00;;;;;;4804625;29;20034;-59
2023/05/31 08:57:13;;;;;;;12.80;5.60;;;19.80;1.00;;;;;;4804657;29;20031;-60
2023/05/31 08:59:39;;;;;;;16.45;6.18;;;20.00;1.00;;;;;;4804602;29;20087;-60
2023/05/31 09:02:08;;;;;;;18.20;5.45;;;20.00;1.00;;;;;;4818250;29;20054;-60
2023/05/31 09:04:35;;;;;;;16.80;5.93;;;19.70;1.00;;;;;;4804798;29;20376;-60
2023/05/31 09:07:01;;;;;;;17.95;4.38;;;19.70;1.00;;;;;;4804275;29;20034;-60
2023/05/31 09:09:27;;;;;;;11.32;4.32;;;19.90;1.00;;;;;;4804401;29;20035;-60
2023/05/31 09:11:53;;;;;;;11.60;4.78;;;20.30;1.00;;;;;;4804451;29;20121;-57
2023/05/31 09:14:18;;;;;;;16.40;5.05;;;20.40;1.00;;;;;;4804179;29;20070;-56
2023/05/31 09:16:44;;;;;;;9.65;3.92;;;20.30;1.00;;;;;;4804552;29;20038;-60
2023/05/31 09:19:10;;;;;;;14.55;4.65;;;20.60;1.00;;;;;;4804284;29;20038;-55
2023/05/31 09:21:44;;;;;;;9.90;4.55;;;20.70;1.00;;;;;;4804343;29;20463;-59
2023/05/31 09:24:10;;;;;;;20.20;4.60;;;20.80;1.00;;;;;;4804091;29;20395;-57
2023/05/31 09:26:47;;;;;;;15.05;5.30;;;20.90;1.00;;;;;;4804464;29;20061;-59
2023/05/31 09:29:13;;;;;;;10.45;4.35;;;21.00;1.00;;;;;;4804500;29;20441;-59
2023/05/31 09:31:39;;;;;;;15.90;4.13;;;21.10;1.00;;;;;;4804212;29;20107;-57
2023/05/31 09:34:05;;;;;;;15.10;5.20;;;21.40;1.00;;;;;;4804108;29;20054;-57
2023/05/31 09:36:31;;;;;;;16.83;4.47;;;21.50;1.00;;;;;;4804237;29;20715;-59
2023/05/31 09:39:04;;;;;;;10.80;4.25;;;21.60;1.00;;;;;;4804155;29;20138;-59
2023/05/31 09:41:30;;;;;;;20.90;5.18;;;21.70;1.00;;;;;;4804230;29;20445;-58
2023/05/31 09:43:56;;;;;;;12.85;5.32;;;21.80;1.00;;;;;;4807427;29;20038;-57
2023/05/31 09:46:23;;;;;;;17.95;4.97;;;21.80;1.00;;;;;;4807501;29;20034;-59
2023/05/31 09:49:05;;;;;;;15.18;5.30;;;21.90;1.00;;;;;;4807497;29;20035;-59
2023/05/31 09:51:32;;;;;;;13.13;4.40;;;21.90;1.00;;;;;;4811088;29;20482;-59
2023/05/31 09:54:00;;;;;;;12.30;4.93;;;22.10;1.00;;;;;;4825361;29;20038;-59
2023/05/31 09:56:27;;;;;;;13.30;4.40;;;22.20;1.00;;;;;;4825252;29;20022;-59
2023/05/31 09:58:56;;;;;;;11.40;4.90;;;22.20;1.00;;;;;;4839328;29;20026;-60
2023/05/31 10:01:21;;;;;;;19.17;4.93;;;21.90;1.00;;;;;;4825341;29;20027;-60
2023/05/31 10:03:50;;;;;;;11.35;5.28;;;22.20;1.00;;;;;;4825203;29;20037;-59
2023/05/31 10:06:18;;;;;;;11.52;5.10;;;22.40;1.00;;;;;;4825308;29;20042;-59
2023/05/31 10:08:46;;;;;;;11.73;4.75;;;22.40;1.00;;;;;;4825380;29;20023;-59
2023/05/31 10:11:15;;;;;;;14.10;4.85;;;22.80;1.00;;;;;;4825163;29;20030;-59
2023/05/31 10:13:43;;;;;;;12.95;4.40;;;22.90;1.00;;;;;;4825057;29;20599;-59
2023/05/31 10:16:10;;;;;;;11.35;4.88;;;22.90;1.00;;;;;;4825073;29;20031;-58
2023/05/31 10:18:44;;;;;;;12.52;5.28;;;23.00;1.00;;;;;;4838953;29;20113;-59
2023/05/31 10:21:22;;;;;;;;;;;22.90;1.00;;;;;;4825296;29;20518;-59
2023/05/31 10:24:01;;;;;;;15.15;4.95;;;23.00;1.00;;;;;;4824818;29;19909;-60
2023/05/31 10:26:50;;;;;;;10.98;4.65;;;23.00;99.90;;;;;;4824780;29;20045;-59
2023/05/31 10:29:35;;;;;;;17.23;5.03;;;23.20;1.00;;;;;;4824249;29;20110;-59
2023/05/31 10:32:20;;;;;;;9.18;4.97;;;23.30;99.90;;;;;;4824781;29;20022;-59
2023/05/31 10:34:47;;;;;;;16.45;4.70;;;23.30;99.90;;;;;;4824793;29;20027;-58
2023/05/31 10:37:13;;;;;;;12.50;4.85;;;23.40;99.90;;;;;;4824707;29;20398;-60
2023/05/31 10:39:52;;;;;;;9.73;4.78;;;23.70;99.90;;;;;;4824639;29;20028;-59
2023/05/31 10:42:37;;;;;;;9.70;4.88;;;23.80;99.90;;;;;;4824716;29;20033;-60
2023/05/31 10:45:12;;;;;;;17.77;4.43;;;24.10;99.90;;;;;;4824604;29;20060;-59
2023/05/31 10:47:59;;;;;;;18.13;5.97;;;24.20;99.90;;;;;;4824633;29;20030;-59
2023/05/31 10:50:25;;;;;;;7.82;4.30;;;24.50;99.90;;;;;;4824674;29;20065;-60
2023/05/31 10:52:52;;;;;;;9.73;4.85;;;24.70;99.90;;;;;;4824264;29;20054;-60
2023/05/31 10:55:24;;;;;;;12.63;4.10;;;24.90;99.90;;;;;;4824587;29;20037;-60
2023/05/31 10:57:54;;;;;;;10.45;4.80;;;24.90;99.90;;;;;;4824528;29;20035;-59
2023/05/31 11:00:22;;;;;;;10.75;4.43;;;24.80;99.90;;;;;;4824311;29;20031;-60
2023/05/31 11:02:54;;;;;;;15.32;4.60;;;24.70;99.90;;;;;;4824227;29;20030;-59
2023/05/31 11:05:21;;;;;;;17.83;4.40;;;24.70;99.90;;;;;;4824397;29;20701;-59
2023/05/31 11:07:48;;;;;;;11.77;4.65;;;24.80;99.90;;;;;;4808246;29;20041;-59
2023/05/31 11:10:28;;;;;;;9.10;4.45;;;24.70;99.90;;;;;;4795944;29;20031;-59
2023/05/31 11:13:02;;;;;;;11.18;4.63;;;24.40;99.90;;;;;;4795531;29;20038;-59
2023/05/31 11:15:42;;;;;;;12.85;5.00;;;24.20;99.90;;;;;;4795532;29;20084;-58
2023/05/31 11:18:09;;;;;;;11.07;4.20;;;24.50;99.90;;;;;;4795217;29;20027;-59
2023/05/31 11:20:38;;;;;;;10.75;6.50;;;24.50;99.90;;;;;;4794889;29;20031;-58
2023/05/31 11:23:23;;;;;;;10.82;5.22;;;24.60;99.90;;;;;;4795663;29;20126;-59
2023/05/31 11:26:15;;;;;;;12.07;4.68;;;24.80;99.90;;;;;;4795476;29;20049;-59
2023/05/31 11:28:58;;;;;;;9.40;4.20;;;25.00;99.90;;;;;;4795371;29;20575;-60
2023/05/31 11:31:55;;;;;;;10.13;4.10;;;25.00;99.90;;;;;;4795699;29;20046;-60
2023/05/31 11:34:26;;;;;;;10.27;4.47;;;25.60;99.90;;;;;;4794964;29;20051;-59
2023/05/31 11:36:52;;;;;;;16.30;5.05;;;25.80;99.90;;;;;;4794564;29;20039;-60
2023/05/31 11:39:21;;;;;;;11.80;4.90;;;26.00;99.90;;;;;;4795378;29;20035;-60
2023/05/31 11:41:46;;;;;;;9.40;4.28;;;26.10;99.90;;;;;;4794195;29;20039;-59
2023/05/31 11:44:16;;;;;;;10.85;5.07;;;25.70;99.90;;;;;;4795426;29;20188;-59
2023/05/31 11:46:46;;;;;;;20.27;4.97;;;25.50;99.90;;;;;;4795433;29;20127;-58
2023/05/31 11:49:12;;;;;;;8.60;4.78;;;25.60;99.90;;;;;;4794980;29;20043;-59
2023/05/31 11:51:44;;;;;;;12.73;5.20;;;25.70;99.90;;;;;;4796738;29;20684;-59
2023/05/31 11:54:11;;;;;;;12.40;4.45;;;25.80;99.90;;;;;;4804420;29;20026;-59
2023/05/31 11:56:37;;;;;;;14.10;4.88;;;25.80;99.90;;;;;;4805221;29;20088;-59
2023/05/31 11:59:03;;;;;;;18.98;5.03;;;26.10;99.90;;;;;;4805071;29;20117;-59
2023/05/31 12:01:36;;;;;;;11.23;4.82;;;26.20;99.90;;;;;;4804098;29;20041;-60
2023/05/31 12:04:01;;;;;;;14.73;5.97;;;26.50;99.90;;;;;;4805282;29;20030;-60
2023/05/31 12:06:28;;;;;;;11.85;4.78;;;26.70;99.90;;;;;;4804931;29;20035;-59
2023/05/31 12:08:54;;;;;;;12.00;4.88;;;27.10;99.90;;;;;;4805099;29;20037;-60
2023/05/31 12:11:21;;;;;;;13.30;4.45;;;27.20;99.90;;;;;;4805131;29;20030;-59
2023/05/31 12:13:47;;;;;;;13.77;4.20;;;27.50;99.90;;;;;;4805082;29;20023;-59
2023/05/31 12:16:13;;;;;;;9.82;4.80;;;28.20;99.90;;;;;;4818974;29;20356;-59
2023/05/31 12:18:39;;;;;;;16.20;5.75;;;28.30;99.90;;;;;;4805085;29;20041;-59
2023/05/31 12:21:11;;;;;;;7.28;4.38;;;28.60;99.90;;;;;;4804950;29;20073;-59
2023/05/31 12:23:53;;;;;;;13.32;4.15;;;29.30;99.90;;;;;;4804880;29;20022;-59
2023/05/31 12:26:21;;;;;;;13.48;3.83;;;29.90;99.90;;;;;;4804970;29;20043;-60
2023/05/31 12:28:50;;;;;;;13.77;4.45;;;29.90;99.90;;;;;;4804901;29;20100;-60
2023/05/31 12:31:23;;;;;;;7.32;3.92;;;30.10;99.90;;;;;;4804936;29;20042;-59
2023/05/31 12:33:59;;;;;;;10.40;4.15;;;30.30;99.90;;;;;;4804551;29;20095;-68
2023/05/31 12:36:26;;;;;;;10.63;4.40;;;30.80;99.90;;;;;;4804898;29;20467;-71
2023/05/31 12:38:59;;;;;;;11.00;3.83;;;30.40;99.90;;;;;;4804718;29;20026;-70
2023/05/31 12:41:26;;;;;;;12.70;4.38;;;30.70;99.90;;;;;;4804816;29;20029;-72
2023/05/31 12:43:54;;;;;;;14.73;4.32;;;31.60;99.90;;;;;;4818626;29;20542;-72
2023/05/31 12:46:19;;;;;;;13.35;4.38;;;31.20;99.90;;;;;;4804643;29;20110;-68
2023/05/31 12:48:48;;;;;;;8.68;4.05;;;31.20;99.90;;;;;;4804709;29;20031;-69